Harbison, South Carolina
Current Conditions -  °F | °C
As of 3:56 PM on Thursday 18 Dec 2014 (Local Time) from KCAE Reporting Station
Scattered Clouds Scattered Clouds  
Wind Chill: 59°   Ceiling: Unl
Heat Index: 59°   Visibility: 10mi
Dew Point: 34°   Wind: 0mph
Humidity: 39%   Direction: NA
Pressure: 30.07"   Gusts: NA
Location:  34.0744°N, 81.1928°W
Report Text: KCAE 182056Z 00000KT 10SM SCT110 SCT220 15/01 A3007 RMK AO2 SLP183 T01500011 55014
Loading
Personal Weather Stations






























Interactive Weather Map New forecast layout! Learn more

10-Day Weather Forecast

Advertisements
Track Severe Weather on mobile